createdAt,value
2019-03-01T00:01:59.376Z,14.73
2019-03-01T00:04:42.550Z,13.63
2019-03-01T00:07:48.599Z,13.13
2019-03-01T00:10:28.417Z,14.13
2019-03-01T00:13:20.851Z,12.37
2019-03-01T00:15:57.929Z,13.17
2019-03-01T00:18:40.654Z,10.50
2019-03-01T00:21:54.539Z,14.13
2019-03-01T00:24:46.766Z,11.93
2019-03-01T00:27:58.880Z,17.77
2019-03-01T00:30:41.880Z,14.23
2019-03-01T00:33:46.227Z,13.77
2019-03-01T00:36:41.518Z,12.70
2019-03-01T00:39:21.575Z,15.40
2019-03-01T00:42:17.150Z,18.63
2019-03-01T00:44:48.369Z,14.70
2019-03-01T00:47:18.547Z,12.53
2019-03-01T00:49:48.266Z,17.23
2019-03-01T00:52:18.083Z,14.00
2019-03-01T00:54:47.783Z,12.47
2019-03-01T00:57:17.461Z,13.30
2019-03-01T00:59:47.211Z,16.73
2019-03-01T01:02:17.002Z,13.10
2019-03-01T01:04:47.072Z,14.33
2019-03-01T01:07:16.739Z,19.93
2019-03-01T01:09:46.551Z,15.17
2019-03-01T01:12:16.387Z,14.33
2019-03-01T01:14:46.120Z,13.37
2019-03-01T01:17:15.989Z,11.27
2019-03-01T01:19:45.729Z,12.60
2019-03-01T01:22:15.478Z,17.27
2019-03-01T01:24:45.188Z,12.93
2019-03-01T01:27:15.024Z,13.13
2019-03-01T01:29:44.733Z,16.10
2019-03-01T01:32:14.513Z,14.97
2019-03-01T01:34:45.025Z,16.13
2019-03-01T01:37:14.695Z,13.17
2019-03-01T01:39:44.444Z,17.47
2019-03-01T01:42:14.121Z,15.53
2019-03-01T01:44:43.835Z,14.20
2019-03-01T01:47:13.572Z,13.43
2019-03-01T01:49:43.356Z,16.03
2019-03-01T01:52:13.069Z,17.70
2019-03-01T01:54:42.869Z,17.10
2019-03-01T01:57:12.538Z,21.30
2019-03-01T01:59:42.291Z,14.37
2019-03-01T02:02:11.996Z,19.43
2019-03-01T02:04:41.734Z,16.43
2019-03-01T02:07:11.673Z,18.27
2019-03-01T02:09:41.436Z,14.67
2019-03-01T02:12:11.153Z,16.63
2019-03-01T02:14:40.876Z,18.50
2019-03-01T02:17:10.660Z,16.03
2019-03-01T02:19:40.404Z,19.00
2019-03-01T02:22:10.108Z,18.47
2019-03-01T02:24:39.803Z,16.77
2019-03-01T02:27:22.938Z,18.10
2019-03-01T02:29:52.832Z,15.83
2019-03-01T02:32:35.702Z,17.23
2019-03-01T02:35:09.199Z,15.53
2019-03-01T02:37:39.027Z,15.90
2019-03-01T02:40:12.931Z,16.50
2019-03-01T02:42:42.775Z,16.67
2019-03-01T02:45:23.602Z,18.03
2019-03-01T02:47:53.389Z,15.40
2019-03-01T02:50:23.187Z,18.43
2019-03-01T02:52:52.843Z,15.30
2019-03-01T02:55:24.377Z,13.00
2019-03-01T02:57:54.046Z,14.53
2019-03-01T03:00:29.481Z,12.30
2019-03-01T03:02:59.599Z,17.10
2019-03-01T03:05:29.415Z,15.80
2019-03-01T03:08:00.749Z,12.80
2019-03-01T03:10:30.683Z,14.83
2019-03-01T03:13:06.533Z,13.40
2019-03-01T03:15:38.005Z,12.97
2019-03-01T03:18:08.336Z,14.37
2019-03-01T03:20:38.387Z,13.43
2019-03-01T03:23:08.113Z,13.80
2019-03-01T03:25:38.035Z,13.83
2019-03-01T03:28:07.677Z,14.43
2019-03-01T03:30:37.868Z,14.67
2019-03-01T03:33:07.681Z,17.43
2019-03-01T03:35:37.422Z,15.33
2019-03-01T03:38:07.247Z,16.73
2019-03-01T03:40:37.060Z,13.73
2019-03-01T03:43:06.979Z,15.97
2019-03-01T03:45:36.628Z,18.80
2019-03-01T03:48:06.441Z,16.27
2019-03-01T03:50:36.247Z,15.83
2019-03-01T03:53:06.025Z,15.53
2019-03-01T03:55:35.985Z,12.47
2019-03-01T03:58:06.707Z,13.83
2019-03-01T04:00:36.566Z,12.30
2019-03-01T04:03:06.494Z,15.43
2019-03-01T04:05:36.214Z,13.03
2019-03-01T04:08:06.253Z,12.87
2019-03-01T04:10:36.020Z,14.37
2019-03-01T04:13:05.825Z,13.63
2019-03-01T04:15:35.590Z,15.03
2019-03-01T04:18:05.367Z,13.83
2019-03-01T04:20:35.101Z,15.83
2019-03-01T04:23:04.914Z,14.80
2019-03-01T04:25:34.655Z,14.87
2019-03-01T04:28:04.485Z,12.33
2019-03-01T04:30:34.593Z,13.73
2019-03-01T04:33:04.337Z,17.77
2019-03-01T04:35:34.046Z,12.67
2019-03-01T04:38:03.755Z,13.70
2019-03-01T04:40:33.408Z,12.80
2019-03-01T04:43:03.147Z,17.83
2019-03-01T04:45:32.865Z,15.63
2019-03-01T04:48:02.694Z,13.70
2019-03-01T04:50:32.438Z,13.87
2019-03-01T04:53:02.147Z,13.07
2019-03-01T04:55:31.826Z,19.33
2019-03-01T04:58:01.729Z,16.23
2019-03-01T05:00:32.066Z,14.63
2019-03-01T05:03:01.826Z,16.13
2019-03-01T05:05:31.570Z,17.43
2019-03-01T05:08:01.242Z,16.00
2019-03-01T05:10:30.972Z,14.00
2019-03-01T05:13:00.609Z,17.57
2019-03-01T05:15:30.367Z,15.37
2019-03-01T05:18:00.015Z,21.13
2019-03-01T05:20:31.098Z,19.10
2019-03-01T05:23:01.054Z,20.33
2019-03-01T05:25:30.762Z,19.50
2019-03-01T05:28:00.417Z,21.57
2019-03-01T05:30:30.087Z,20.20
2019-03-01T05:32:59.870Z,19.40
2019-03-01T05:35:29.652Z,19.63
2019-03-01T05:37:59.345Z,21.20
2019-03-01T05:40:29.151Z,17.37
2019-03-01T05:42:58.923Z,22.43
2019-03-01T05:45:30.695Z,19.20
2019-03-01T05:48:01.340Z,19.63
2019-03-01T05:50:31.095Z,26.20
2019-03-01T05:53:00.807Z,19.33
2019-03-01T05:55:30.533Z,23.43
2019-03-01T05:58:21.589Z,23.73
2019-03-01T06:00:52.762Z,23.60
2019-03-01T06:03:35.826Z,22.73
2019-03-01T06:06:05.679Z,22.87
2019-03-01T06:08:42.939Z,23.67
2019-03-01T06:11:19.879Z,24.87
2019-03-01T06:13:56.951Z,24.70
2019-03-01T06:16:51.779Z,29.73
2019-03-01T06:19:35.154Z,26.57
2019-03-01T06:22:30.581Z,28.80
2019-03-01T06:25:32.127Z,35.40
2019-03-01T06:28:09.081Z,45.73
2019-03-01T06:31:01.169Z,33.00
2019-03-01T06:34:18.125Z,46.93
2019-03-01T06:36:55.166Z,35.10
2019-03-01T06:40:13.321Z,35.00
2019-03-01T06:43:07.868Z,39.00
2019-03-01T06:45:59.500Z,41.97
2019-03-01T06:48:33.800Z,41.73
2019-03-01T06:51:08.050Z,49.03
2019-03-01T06:53:37.743Z,54.13
2019-03-01T06:56:07.959Z,52.50
2019-03-01T06:58:37.688Z,55.60
2019-03-01T07:01:09.210Z,62.77
2019-03-01T07:03:38.919Z,68.90
2019-03-01T07:06:08.597Z,74.13
2019-03-01T07:08:38.372Z,94.03
2019-03-01T07:11:08.062Z,101.90
2019-03-01T07:13:37.747Z,106.17
2019-03-01T07:16:07.520Z,95.40
2019-03-01T07:18:37.319Z,102.17
2019-03-01T07:21:07.080Z,102.90
2019-03-01T07:23:37.325Z,103.00
2019-03-01T07:26:07.127Z,110.03
2019-03-01T07:28:36.847Z,114.07
2019-03-01T07:31:07.152Z,112.67
2019-03-01T07:33:36.927Z,116.70
2019-03-01T07:36:06.705Z,116.73
2019-03-01T07:38:36.392Z,118.27
2019-03-01T07:41:06.326Z,113.87
2019-03-01T07:43:36.977Z,119.83
2019-03-01T07:46:06.695Z,118.13
2019-03-01T07:48:36.526Z,118.67
2019-03-01T07:51:06.425Z,121.00
2019-03-01T07:53:40.332Z,115.53
2019-03-01T07:56:07.638Z,114.40
2019-03-01T07:58:37.471Z,123.17
2019-03-01T08:01:07.388Z,129.27
2019-03-01T08:03:37.158Z,124.53
2019-03-01T08:06:06.872Z,127.43
2019-03-01T08:08:38.801Z,122.90
2019-03-01T08:11:08.344Z,130.07
2019-03-01T08:13:38.700Z,124.60
2019-03-01T08:16:08.500Z,124.73
2019-03-01T08:18:40.287Z,120.43
2019-03-01T08:21:10.283Z,111.43
2019-03-01T08:23:41.046Z,117.17
2019-03-01T08:26:10.997Z,111.93
2019-03-01T08:28:41.065Z,110.80
2019-03-01T08:31:10.825Z,109.13
2019-03-01T08:33:43.376Z,108.63
2019-03-01T08:36:12.159Z,103.87
2019-03-01T08:38:41.884Z,101.97
2019-03-01T08:41:11.874Z,99.57
2019-03-01T08:43:44.802Z,96.33
2019-03-01T08:46:12.991Z,91.10
2019-03-01T08:48:42.749Z,84.70
2019-03-01T08:51:12.437Z,86.73
2019-03-01T08:53:42.233Z,93.00
2019-03-01T08:56:14.578Z,88.03
2019-03-01T08:58:43.290Z,99.80
2019-03-01T09:01:20.883Z,96.27
2019-03-01T09:04:02.112Z,94.57
2019-03-01T09:06:31.909Z,99.37
2019-03-01T09:09:02.317Z,104.97
2019-03-01T09:11:32.540Z,104.03
2019-03-01T09:14:02.813Z,106.87
2019-03-01T09:16:32.873Z,113.63
2019-03-01T09:19:02.583Z,107.90
2019-03-01T09:21:32.266Z,110.80
2019-03-01T09:24:02.127Z,107.50
2019-03-01T09:26:31.794Z,113.37
2019-03-01T09:29:01.487Z,106.60
2019-03-01T09:31:31.145Z,119.80
2019-03-01T09:34:00.874Z,104.97
2019-03-01T09:36:32.187Z,110.23
2019-03-01T09:39:01.878Z,109.70
2019-03-01T09:41:31.578Z,119.10
2019-03-01T09:44:03.019Z,117.40
2019-03-01T09:46:32.807Z,104.73
2019-03-01T09:49:02.466Z,103.17
2019-03-01T09:51:32.170Z,105.50
2019-03-01T09:54:02.290Z,99.73
2019-03-01T09:56:32.136Z,112.10
2019-03-01T09:59:01.876Z,116.23
2019-03-01T10:01:31.628Z,109.00
2019-03-01T10:04:01.619Z,98.83
2019-03-01T10:06:37.817Z,110.00
2019-03-01T10:09:02.708Z,102.73
2019-03-01T10:11:32.589Z,99.47
2019-03-01T10:14:02.359Z,95.27
2019-03-01T10:16:32.149Z,108.47
2019-03-01T10:19:01.804Z,98.67
2019-03-01T10:21:31.534Z,96.13
2019-03-01T10:24:01.257Z,100.67
2019-03-01T10:26:30.949Z,95.40
2019-03-01T10:29:00.691Z,101.03
2019-03-01T10:31:30.394Z,97.17
2019-03-01T10:34:00.208Z,107.13
2019-03-01T10:36:30.049Z,94.67
2019-03-01T10:38:59.712Z,91.53
2019-03-01T10:41:29.398Z,96.23
2019-03-01T10:43:59.088Z,90.33
2019-03-01T10:46:28.800Z,86.93
2019-03-01T10:48:58.458Z,81.63
2019-03-01T10:51:28.224Z,77.93
2019-03-01T10:53:58.407Z,91.80
2019-03-01T10:56:28.106Z,92.97
2019-03-01T10:58:58.517Z,88.10
2019-03-01T11:01:28.218Z,88.20
2019-03-01T11:03:58.053Z,80.23
2019-03-01T11:06:27.792Z,76.93
2019-03-01T11:08:57.506Z,78.13
2019-03-01T11:11:27.249Z,80.90
2019-03-01T11:13:57.254Z,82.20
2019-03-01T11:16:26.971Z,84.43
2019-03-01T11:18:56.933Z,85.37
2019-03-01T11:21:26.663Z,84.90
2019-03-01T11:23:56.585Z,85.97
2019-03-01T11:26:26.321Z,87.30
2019-03-01T11:28:56.175Z,76.00
2019-03-01T11:31:26.297Z,85.87
2019-03-01T11:33:55.997Z,88.67
2019-03-01T11:36:25.852Z,86.43
2019-03-01T11:38:56.041Z,87.40
2019-03-01T11:41:25.847Z,94.63
2019-03-01T11:43:56.139Z,87.90
2019-03-01T11:46:26.059Z,81.80
2019-03-01T11:48:55.698Z,56.57
2019-03-01T11:51:25.424Z,44.50
2019-03-01T11:53:55.174Z,38.13
2019-03-01T11:56:25.045Z,32.77
2019-03-01T11:58:54.722Z,32.60
2019-03-01T12:01:24.406Z,35.30
2019-03-01T12:03:54.167Z,33.93
2019-03-01T12:06:23.868Z,29.93
2019-03-01T12:08:53.507Z,42.07
2019-03-01T12:11:23.422Z,40.03
2019-03-01T12:13:53.224Z,53.83
2019-03-01T12:16:23.035Z,66.50
2019-03-01T12:18:52.781Z,79.47
2019-03-01T12:21:22.439Z,90.93
2019-03-01T12:23:52.167Z,80.57
2019-03-01T12:26:21.913Z,75.53
2019-03-01T12:28:51.620Z,59.83
2019-03-01T12:31:21.344Z,58.27
2019-03-01T12:36:20.027Z,61.20
2019-03-01T12:38:49.855Z,66.67
2019-03-01T12:41:19.708Z,64.83
2019-03-01T12:43:49.388Z,48.67
2019-03-01T12:46:19.104Z,57.43
2019-03-01T12:48:48.854Z,65.20
2019-03-01T12:51:18.699Z,53.97
2019-03-01T12:53:48.489Z,36.17
2019-03-01T12:56:18.257Z,48.57
2019-03-01T12:58:48.026Z,31.90
2019-03-01T13:01:17.865Z,68.30
2019-03-01T13:03:47.552Z,51.00
2019-03-01T13:06:17.482Z,74.67
2019-03-01T13:08:47.824Z,58.20
2019-03-01T13:11:18.726Z,47.43
2019-03-01T13:13:48.465Z,31.27
2019-03-01T13:16:18.278Z,25.60
2019-03-01T13:18:51.478Z,25.80
2019-03-01T13:21:19.609Z,27.03
2019-03-01T13:23:49.315Z,27.83
2019-03-01T13:26:19.061Z,37.57
2019-03-01T13:28:48.805Z,27.13
2019-03-01T13:31:18.527Z,31.93
2019-03-01T13:33:48.281Z,33.87
2019-03-01T13:36:18.067Z,33.17
2019-03-01T13:38:47.842Z,25.83
2019-03-01T13:41:17.688Z,25.33
2019-03-01T13:43:47.741Z,24.23
2019-03-01T13:46:17.430Z,30.87
2019-03-01T13:48:47.124Z,35.00
2019-03-01T13:51:17.206Z,36.50
2019-03-01T13:53:49.130Z,35.93
2019-03-01T13:56:19.251Z,43.47
2019-03-01T13:58:49.115Z,40.63
2019-03-01T14:01:18.871Z,40.80
2019-03-01T14:03:48.686Z,44.37
2019-03-01T14:06:18.610Z,44.30
2019-03-01T14:08:48.385Z,34.63
2019-03-01T14:11:21.590Z,31.73
2019-03-01T14:13:51.083Z,36.60
2019-03-01T14:16:21.773Z,34.80
2019-03-01T14:18:51.685Z,36.47
2019-03-01T14:21:21.465Z,44.23
2019-03-01T14:23:51.330Z,40.07
2019-03-01T14:26:21.081Z,43.17
2019-03-01T14:28:50.795Z,40.53
2019-03-01T14:31:20.563Z,42.40
2019-03-01T14:33:51.660Z,33.33
2019-03-01T14:40:15.787Z,28.67
2019-03-01T14:42:50.131Z,27.93
2019-03-01T14:45:28.846Z,34.77
2019-03-01T14:47:58.756Z,32.90
2019-03-01T14:50:33.870Z,25.67
2019-03-01T14:53:01.915Z,30.20
2019-03-01T14:55:52.393Z,30.33
2019-03-01T15:02:18.021Z,27.63
2019-03-01T15:04:47.798Z,23.43
2019-03-01T15:07:17.453Z,26.53
2019-03-01T15:09:47.228Z,22.40
2019-03-01T15:12:20.893Z,23.80
2019-03-01T15:14:49.975Z,42.43
2019-03-01T15:17:21.899Z,23.87
2019-03-01T15:19:51.637Z,23.50
2019-03-01T15:22:21.429Z,20.03
2019-03-01T15:24:51.512Z,23.13
2019-03-01T15:27:21.299Z,23.80
2019-03-01T15:29:51.015Z,26.50
2019-03-01T15:32:20.677Z,22.40
2019-03-01T15:34:50.550Z,23.53
2019-03-01T15:37:20.320Z,22.33
2019-03-01T15:39:51.303Z,21.70
2019-03-01T15:42:21.712Z,21.10
2019-03-01T15:44:51.495Z,25.83
2019-03-01T15:47:23.906Z,22.73
2019-03-01T15:49:52.581Z,21.70
2019-03-01T15:52:22.266Z,26.13
2019-03-01T15:54:51.970Z,24.03
2019-03-01T15:57:21.615Z,22.27
2019-03-01T15:59:51.396Z,28.07
2019-03-01T16:02:21.093Z,22.20
2019-03-01T16:04:50.962Z,21.17
2019-03-01T16:07:20.675Z,21.87
2019-03-01T16:09:50.555Z,23.03
2019-03-01T16:12:20.367Z,22.80
2019-03-01T16:14:50.155Z,31.07
2019-03-01T16:17:21.895Z,27.50
2019-03-01T16:19:53.430Z,25.17
2019-03-01T16:22:22.836Z,25.27
2019-03-01T16:24:52.539Z,22.77
2019-03-01T16:27:22.348Z,16.50
2019-03-01T16:29:52.024Z,20.33
2019-03-01T16:32:21.722Z,18.03
2019-03-01T16:34:51.412Z,17.27
2019-03-01T16:37:22.727Z,14.37
2019-03-01T16:39:56.035Z,15.30
2019-03-01T16:42:24.049Z,20.27
2019-03-01T16:44:53.762Z,14.57
2019-03-01T16:47:23.422Z,14.83
2019-03-01T16:49:53.190Z,13.07
2019-03-01T16:52:22.935Z,12.87
2019-03-01T16:54:54.715Z,14.47
2019-03-01T16:57:24.102Z,12.80
2019-03-01T16:59:53.833Z,7.80
2019-03-01T17:02:23.486Z,11.40
2019-03-01T17:04:53.204Z,13.63
2019-03-01T17:07:25.067Z,14.67
2019-03-01T17:09:55.044Z,13.93
2019-03-01T17:12:24.703Z,12.13
2019-03-01T17:14:54.467Z,9.00
2019-03-01T17:17:24.211Z,11.77
2019-03-01T17:19:53.879Z,16.57
2019-03-01T17:22:26.404Z,14.03
2019-03-01T17:24:56.371Z,7.60
2019-03-01T17:27:26.124Z,9.33
2019-03-01T17:29:55.783Z,10.40
2019-03-01T17:32:25.605Z,8.23
2019-03-01T17:34:55.317Z,9.67
2019-03-01T17:37:25.869Z,9.03
2019-03-01T17:39:57.691Z,9.40
2019-03-01T17:42:27.503Z,8.97
2019-03-01T17:44:57.808Z,8.53
2019-03-01T17:47:27.632Z,9.90
2019-03-01T17:49:57.350Z,6.97
2019-03-01T17:52:30.550Z,8.77
2019-03-01T17:55:01.511Z,7.17
2019-03-01T17:57:33.117Z,6.77
2019-03-01T18:00:02.863Z,11.47
2019-03-01T18:02:32.596Z,8.97
2019-03-01T18:05:02.348Z,11.97
2019-03-01T18:07:32.131Z,9.73
2019-03-01T18:10:01.846Z,9.10
2019-03-01T18:12:31.708Z,12.27
2019-03-01T18:15:01.365Z,9.87
2019-03-01T18:17:32.988Z,12.00
2019-03-01T18:20:02.811Z,7.60
2019-03-01T18:22:33.550Z,12.40
2019-03-01T18:25:03.494Z,9.03
2019-03-01T18:27:33.216Z,8.53
2019-03-01T18:30:02.990Z,5.37
2019-03-01T18:32:32.701Z,9.13
2019-03-01T18:35:02.441Z,12.53
2019-03-01T18:37:32.166Z,5.83
2019-03-01T18:40:01.919Z,12.10
2019-03-01T18:42:34.303Z,16.33
2019-03-01T18:45:03.553Z,8.50
2019-03-01T18:47:34.459Z,8.00
2019-03-01T18:50:06.199Z,8.20
2019-03-01T18:52:35.911Z,9.00
2019-03-01T18:55:09.061Z,12.53
2019-03-01T18:57:39.525Z,9.53
2019-03-01T19:00:13.921Z,9.87
2019-03-01T19:02:43.806Z,8.90
2019-03-01T19:05:13.523Z,9.33
2019-03-01T19:07:43.208Z,17.63
2019-03-01T19:10:19.737Z,16.63
2019-03-01T19:12:49.657Z,12.03
2019-03-01T19:15:19.463Z,10.80
2019-03-01T19:17:49.223Z,13.50
2019-03-01T19:20:41.069Z,13.30
2019-03-01T19:23:09.475Z,12.27
2019-03-01T19:25:39.218Z,8.87
2019-03-01T19:28:08.931Z,9.50
2019-03-01T19:30:38.785Z,8.17
2019-03-01T19:33:08.778Z,9.80
2019-03-01T19:35:39.137Z,9.73
2019-03-01T19:38:08.901Z,10.53
2019-03-01T19:40:38.673Z,9.80
2019-03-01T19:43:10.206Z,12.60
2019-03-01T19:45:40.792Z,10.10
2019-03-01T19:48:11.427Z,12.27
2019-03-01T19:50:41.080Z,11.33
2019-03-01T19:53:10.836Z,14.80
2019-03-01T19:55:40.598Z,11.80
2019-03-01T19:58:11.952Z,11.63
2019-03-01T20:00:42.445Z,11.73
2019-03-01T20:03:13.477Z,15.17
2019-03-01T20:05:43.550Z,12.70
2019-03-01T20:08:13.297Z,12.23
2019-03-01T20:10:43.075Z,13.23
2019-03-01T20:13:16.474Z,12.93
2019-03-01T20:15:46.225Z,13.33
2019-03-01T20:18:16.349Z,12.63
2019-03-01T20:20:46.073Z,14.97
2019-03-01T20:23:15.721Z,16.33
2019-03-01T20:25:47.643Z,13.27
2019-03-01T20:28:16.851Z,13.73
2019-03-01T20:30:47.285Z,15.57
2019-03-01T20:33:17.092Z,15.10
2019-03-01T20:35:46.838Z,12.23
2019-03-01T20:38:16.609Z,13.80
2019-03-01T20:40:46.352Z,11.50
2019-03-01T20:43:16.149Z,14.13
2019-03-01T20:45:45.809Z,11.47
2019-03-01T20:48:15.560Z,9.57
2019-03-01T20:50:47.648Z,11.27
2019-03-01T20:53:16.706Z,14.03
2019-03-01T20:55:46.344Z,9.13
2019-03-01T20:58:16.093Z,8.67
2019-03-01T21:00:45.886Z,9.40
2019-03-01T21:03:15.648Z,9.50
2019-03-01T21:05:45.390Z,10.53
2019-03-01T21:08:15.126Z,10.30
2019-03-01T21:10:46.848Z,10.37
2019-03-01T21:13:16.214Z,8.47
2019-03-01T21:15:46.045Z,8.77
2019-03-01T21:18:15.706Z,6.70
2019-03-01T21:20:45.473Z,7.47
2019-03-01T21:23:15.899Z,6.50
2019-03-01T21:25:45.757Z,7.87
2019-03-01T21:28:15.483Z,7.70
2019-03-01T21:30:45.660Z,10.27
2019-03-01T21:33:15.659Z,6.70
2019-03-01T21:35:47.749Z,9.73
2019-03-01T21:38:16.811Z,5.60
2019-03-01T21:40:47.016Z,7.70
2019-03-01T21:43:16.780Z,6.43
2019-03-01T21:45:46.582Z,8.47
2019-03-01T21:48:16.378Z,14.43
2019-03-01T21:50:46.076Z,7.13
2019-03-01T21:53:15.807Z,6.17
2019-03-01T21:55:45.497Z,7.57
2019-03-01T21:58:15.146Z,6.13
2019-03-01T22:00:44.936Z,5.83
2019-03-01T22:03:14.675Z,7.23
2019-03-01T22:05:45.284Z,6.57
2019-03-01T22:08:15.903Z,6.20
2019-03-01T22:10:45.578Z,5.53
2019-03-01T22:13:15.288Z,7.93
2019-03-01T22:15:44.908Z,8.63
2019-03-01T22:18:14.676Z,6.13
2019-03-01T22:20:44.829Z,6.80
2019-03-01T22:23:16.477Z,8.50
2019-03-01T22:25:46.323Z,7.20
2019-03-01T22:28:15.997Z,5.97
2019-03-01T22:30:45.731Z,5.80
2019-03-01T22:33:17.359Z,5.50
2019-03-01T22:35:46.992Z,6.90
2019-03-01T22:38:16.679Z,6.17
2019-03-01T22:40:46.424Z,7.13
2019-03-01T22:43:16.096Z,8.63
2019-03-01T22:45:48.915Z,7.87
2019-03-01T22:48:17.215Z,9.30
2019-03-01T22:50:47.004Z,7.37
2019-03-01T22:53:16.639Z,7.97
2019-03-01T22:55:46.316Z,6.43
2019-03-01T22:58:16.078Z,8.17
2019-03-01T23:01:03.537Z,7.23
2019-03-01T23:03:33.440Z,7.57
2019-03-01T23:06:03.233Z,10.47
2019-03-01T23:08:35.521Z,14.53
2019-03-01T23:11:04.585Z,9.33
2019-03-01T23:13:34.300Z,13.03
2019-03-01T23:16:04.070Z,12.50
2019-03-01T23:18:33.812Z,13.07
2019-03-01T23:21:03.562Z,10.63
2019-03-01T23:23:33.213Z,10.37
2019-03-01T23:26:02.910Z,12.50
2019-03-01T23:28:32.570Z,11.37
2019-03-01T23:31:03.635Z,13.87
2019-03-01T23:33:34.261Z,13.47
2019-03-01T23:36:03.997Z,12.00
2019-03-01T23:38:33.705Z,13.07
2019-03-01T23:41:03.453Z,13.83
2019-03-01T23:43:33.208Z,12.43
2019-03-01T23:46:02.868Z,13.53
2019-03-01T23:48:32.580Z,13.43
2019-03-01T23:51:02.249Z,14.17
2019-03-01T23:53:34.088Z,13.60
2019-03-01T23:56:03.457Z,12.97
2019-03-01T23:58:33.158Z,17.17
